createdAt,value
2023-05-10T00:00:18.982Z,100980.53
2023-05-10T00:02:47.150Z,100983.34
2023-05-10T00:05:15.099Z,100977.13
2023-05-10T00:07:45.683Z,100974.84
2023-05-10T00:10:14.316Z,100970.31
2023-05-10T00:12:44.146Z,100976.06
2023-05-10T00:15:13.196Z,100968.63
2023-05-10T00:17:41.419Z,100973.28
2023-05-10T00:20:10.376Z,100967.59
2023-05-10T00:22:38.303Z,100971.72
2023-05-10T00:25:07.454Z,100964.31
2023-05-10T00:27:35.565Z,100949.63
2023-05-10T00:30:05.468Z,100958.69
2023-05-10T00:32:33.445Z,100949.63
2023-05-10T00:35:01.443Z,100948.78
2023-05-10T00:37:29.354Z,100944.53
2023-05-10T00:39:57.383Z,100946.09
2023-05-10T00:42:25.479Z,100948.47
2023-05-10T00:44:55.716Z,100953.72
2023-05-10T00:47:25.104Z,100941.72
2023-05-10T00:49:53.631Z,100944.94
2023-05-10T00:52:21.802Z,100948.09
2023-05-10T00:54:50.173Z,100942.22
2023-05-10T00:57:18.325Z,100944.19
2023-05-10T00:59:46.358Z,100936.25
2023-05-10T01:02:15.382Z,100938.25
2023-05-10T01:04:45.297Z,100935.16
2023-05-10T01:07:13.204Z,100930.19
2023-05-10T01:09:41.319Z,100932.97
2023-05-10T01:12:09.566Z,100937.97
2023-05-10T01:14:38.306Z,100935.91
2023-05-10T01:17:08.065Z,100937.88
2023-05-10T01:19:43.724Z,100930.25
2023-05-10T01:22:44.188Z,100919.44
2023-05-10T01:25:45.815Z,100916.69
2023-05-10T01:28:50.256Z,100928.31
2023-05-10T01:31:32.902Z,100922.38
2023-05-10T01:34:07.278Z,100930.03
2023-05-10T01:36:42.360Z,100920.59
2023-05-10T01:39:18.027Z,100909.81
2023-05-10T01:41:53.162Z,100929.34
2023-05-10T01:44:29.322Z,100925.41
2023-05-10T01:47:06.561Z,100914.38
2023-05-10T01:49:42.543Z,100923.94
2023-05-10T01:52:12.727Z,100916.47
2023-05-10T01:54:45.169Z,100921.59
2023-05-10T01:57:15.876Z,100915.97
2023-05-10T01:59:47.517Z,100920.31
2023-05-10T02:02:17.233Z,100908.41
2023-05-10T02:04:49.642Z,100912.06
2023-05-10T02:07:18.632Z,100913.41
2023-05-10T02:09:49.054Z,100903.53
2023-05-10T02:12:18.124Z,100915.84
2023-05-10T02:14:47.313Z,100913.09
2023-05-10T02:17:16.450Z,100909.88
2023-05-10T02:19:46.335Z,100908.97
2023-05-10T02:22:17.389Z,100902.38
2023-05-10T02:24:47.121Z,100906.91
2023-05-10T02:27:17.798Z,100904.06
2023-05-10T02:29:46.935Z,100902.81
2023-05-10T02:32:16.606Z,100901.88
2023-05-10T02:34:46.572Z,100899.00
2023-05-10T02:37:19.353Z,100895.22
2023-05-10T02:39:48.978Z,100899.69
2023-05-10T02:42:19.892Z,100899.09
2023-05-10T02:44:51.139Z,100898.53
2023-05-10T02:47:19.929Z,100894.59
2023-05-10T02:49:48.226Z,100890.03
2023-05-10T02:52:24.254Z,100903.66
2023-05-10T02:54:56.633Z,100893.81
2023-05-10T02:57:29.408Z,100890.31
2023-05-10T02:59:57.391Z,100895.69
2023-05-10T03:02:25.485Z,100898.19
2023-05-10T03:04:53.382Z,100903.72
2023-05-10T03:07:23.300Z,100897.56
2023-05-10T03:09:51.815Z,100905.16
2023-05-10T03:12:29.359Z,100899.28
2023-05-10T03:15:04.408Z,100900.13
2023-05-10T03:17:38.442Z,100894.88
2023-05-10T03:20:08.676Z,100898.88
2023-05-10T03:22:40.419Z,100893.72
2023-05-10T03:25:12.580Z,100898.25
2023-05-10T03:27:45.628Z,100891.41
2023-05-10T03:30:15.182Z,100900.16
2023-05-10T03:32:43.423Z,100894.28
2023-05-10T03:35:12.637Z,100885.97
2023-05-10T03:37:42.094Z,100889.72
2023-05-10T03:40:11.934Z,100890.09
2023-05-10T03:42:42.485Z,100888.66
2023-05-10T03:45:11.686Z,100894.88
2023-05-10T03:47:39.599Z,100890.09
2023-05-10T03:50:08.800Z,100891.34
2023-05-10T03:52:36.861Z,100885.63
2023-05-10T03:55:07.308Z,100880.28
2023-05-10T03:57:35.725Z,100883.56
2023-05-10T04:00:03.785Z,100885.56
2023-05-10T04:02:42.410Z,100889.59
2023-05-10T04:05:15.792Z,100893.63
2023-05-10T04:07:45.250Z,100888.06
2023-05-10T04:10:14.963Z,100883.28
2023-05-10T04:12:42.988Z,100877.47
2023-05-10T04:15:11.437Z,100882.97
2023-05-10T04:17:39.342Z,100875.69
2023-05-10T04:20:08.659Z,100880.88
2023-05-10T04:22:36.727Z,100886.34
2023-05-10T04:25:05.363Z,100889.16
2023-05-10T04:27:34.732Z,100877.38
2023-05-10T04:30:02.935Z,100882.25
2023-05-10T04:32:30.858Z,100876.94
2023-05-10T04:34:58.814Z,100878.25
2023-05-10T04:37:26.718Z,100873.38
2023-05-10T04:39:54.549Z,100869.59
2023-05-10T04:42:22.362Z,100867.63
2023-05-10T04:44:52.843Z,100866.59
2023-05-10T04:47:20.920Z,100873.53
2023-05-10T04:49:48.843Z,100859.69
2023-05-10T04:52:18.528Z,100858.44
2023-05-10T04:54:46.429Z,100860.19
2023-05-10T04:57:14.260Z,100867.31
2023-05-10T04:59:42.127Z,100856.63
2023-05-10T05:02:11.379Z,100870.56
2023-05-10T05:04:39.229Z,100863.22
2023-05-10T05:07:07.075Z,100866.97
2023-05-10T05:09:34.950Z,100864.38
2023-05-10T05:12:02.810Z,100859.66
2023-05-10T05:14:30.694Z,100859.75
2023-05-10T05:16:58.677Z,100853.06
2023-05-10T05:19:28.359Z,100850.44
2023-05-10T05:21:56.207Z,100852.28
2023-05-10T05:24:24.123Z,100852.13
2023-05-10T05:26:51.971Z,100854.13
2023-05-10T05:29:19.896Z,100848.44
2023-05-10T05:31:47.822Z,100844.78
2023-05-10T05:34:15.684Z,100839.34
2023-05-10T05:36:44.898Z,100846.47
2023-05-10T05:39:12.754Z,100843.16
2023-05-10T05:41:40.612Z,100838.78
2023-05-10T05:44:08.549Z,100836.47
2023-05-10T05:46:36.433Z,100838.66
2023-05-10T05:49:04.402Z,100834.31
2023-05-10T05:51:33.208Z,100836.44
2023-05-10T05:54:02.691Z,100829.94
2023-05-10T05:56:30.687Z,100833.44
2023-05-10T05:58:58.516Z,100836.28
2023-05-10T06:01:26.381Z,100833.38
2023-05-10T06:03:54.299Z,100838.94
2023-05-10T06:06:22.203Z,100848.69
2023-05-10T06:08:50.054Z,100848.59
2023-05-10T06:11:19.281Z,100844.66
2023-05-10T06:13:47.163Z,100844.94
2023-05-10T06:16:15.313Z,100842.44
2023-05-10T06:18:43.182Z,100838.41
2023-05-10T06:21:11.056Z,100844.41
2023-05-10T06:23:38.918Z,100840.94
2023-05-10T06:26:06.806Z,100834.56
2023-05-10T06:28:36.092Z,100831.78
2023-05-10T06:31:03.962Z,100832.88
2023-05-10T06:33:32.112Z,100835.88
2023-05-10T06:36:00.042Z,100842.56
2023-05-10T06:38:28.282Z,100835.09
2023-05-10T06:40:56.217Z,100831.81
2023-05-10T06:43:24.363Z,100840.84
2023-05-10T06:45:53.633Z,100834.88
2023-05-10T06:48:21.524Z,100832.88
2023-05-10T06:50:49.416Z,100830.41
2023-05-10T06:53:17.299Z,100822.25
2023-05-10T06:55:45.173Z,100829.69
2023-05-10T06:58:13.544Z,100830.41
2023-05-10T07:00:44.550Z,100829.78
2023-05-10T07:03:13.894Z,100831.34
2023-05-10T07:05:41.816Z,100836.94
2023-05-10T07:08:10.037Z,100825.59
2023-05-10T07:10:37.960Z,100829.41
2023-05-10T07:13:05.908Z,100831.13
2023-05-10T07:15:34.469Z,100816.44
2023-05-10T07:18:02.395Z,100824.59
2023-05-10T07:20:31.665Z,100820.72
2023-05-10T07:22:59.472Z,100810.06
2023-05-10T07:25:27.327Z,100822.31
2023-05-10T07:27:55.222Z,100810.44
2023-05-10T07:30:23.218Z,100819.84
2023-05-10T07:32:51.178Z,100819.75
2023-05-10T07:35:19.255Z,100816.13
2023-05-10T07:37:48.521Z,100821.41
2023-05-10T07:40:16.425Z,100816.31
2023-05-10T07:42:44.290Z,100822.63
2023-05-10T07:45:12.389Z,100819.75
2023-05-10T07:47:40.293Z,100809.66
2023-05-10T07:50:09.766Z,100806.28
2023-05-10T07:52:37.616Z,100806.94
2023-05-10T07:55:08.362Z,100815.88
2023-05-10T07:57:36.440Z,100799.84
2023-05-10T08:00:04.812Z,100795.78
2023-05-10T08:02:41.267Z,100811.72
2023-05-10T08:05:10.487Z,100818.13
2023-05-10T08:07:38.476Z,100809.16
2023-05-10T08:10:09.619Z,100820.66
2023-05-10T08:12:37.585Z,100807.13
2023-05-10T08:15:06.935Z,100809.34
2023-05-10T08:17:35.028Z,100810.84
2023-05-10T08:20:03.509Z,100803.25
2023-05-10T08:22:31.713Z,100816.94
2023-05-10T08:24:59.787Z,100808.50
2023-05-10T08:27:29.253Z,100815.78
2023-05-10T08:29:57.454Z,100807.25
2023-05-10T08:32:25.658Z,100803.50
2023-05-10T08:34:53.701Z,100810.44
2023-05-10T08:37:21.725Z,100813.69
2023-05-10T08:39:49.934Z,100811.06
2023-05-10T08:42:23.091Z,100815.94
2023-05-10T08:44:53.114Z,100808.81
2023-05-10T08:47:21.916Z,100823.91
2023-05-10T08:49:51.990Z,100812.53
2023-05-10T08:52:20.804Z,100808.06
2023-05-10T08:54:49.142Z,100817.63
2023-05-10T08:57:17.065Z,100817.69
2023-05-10T08:59:45.224Z,100819.31
2023-05-10T09:02:18.575Z,100812.94
2023-05-10T09:04:46.837Z,100812.94
2023-05-10T09:07:15.105Z,100803.53
2023-05-10T09:09:43.224Z,100813.06
2023-05-10T09:12:12.619Z,100810.22
2023-05-10T09:14:41.460Z,100808.59
2023-05-10T09:17:09.674Z,100802.44
2023-05-10T09:19:39.044Z,100805.66
2023-05-10T09:22:06.937Z,100811.47
2023-05-10T09:24:35.054Z,100806.63
2023-05-10T09:27:03.833Z,100812.19
2023-05-10T09:29:41.575Z,100809.81
2023-05-10T09:32:09.534Z,100813.13
2023-05-10T09:34:41.195Z,100823.19
2023-05-10T09:37:09.293Z,100816.31
2023-05-10T09:39:38.500Z,100800.63
2023-05-10T09:42:08.540Z,100800.06
2023-05-10T09:44:37.032Z,100810.91
2023-05-10T09:47:05.543Z,100815.00
2023-05-10T09:49:34.289Z,100801.91
2023-05-10T09:52:04.898Z,100813.00
2023-05-10T09:54:33.755Z,100803.44
2023-05-10T09:57:01.948Z,100802.81
2023-05-10T09:59:31.511Z,100799.69
2023-05-10T10:02:01.623Z,100795.34
2023-05-10T10:04:30.272Z,100800.69
2023-05-10T10:07:03.741Z,100810.66
2023-05-10T10:09:32.449Z,100801.81
2023-05-10T10:12:01.676Z,100803.94
2023-05-10T10:14:30.767Z,100801.00
2023-05-10T10:19:30.261Z,100793.53
2023-05-10T10:21:58.271Z,100797.75
2023-05-10T10:24:27.643Z,100792.38
2023-05-10T10:26:59.370Z,100776.31
2023-05-10T10:29:35.888Z,100794.53
2023-05-10T10:32:14.241Z,100799.25
2023-05-10T10:34:42.670Z,100791.84
2023-05-10T10:37:10.681Z,100783.41
2023-05-10T10:39:40.320Z,100781.53
2023-05-10T10:42:08.242Z,100787.31
2023-05-10T10:44:40.333Z,100792.66
2023-05-10T10:47:30.015Z,100799.25
2023-05-10T10:50:09.019Z,100794.50
2023-05-10T10:52:38.640Z,100789.28
2023-05-10T10:55:10.288Z,100790.69
2023-05-10T10:57:52.904Z,100781.34
2023-05-10T11:00:26.301Z,100789.19
2023-05-10T11:02:56.049Z,100792.97
2023-05-10T11:05:38.973Z,100789.97
2023-05-10T11:08:22.825Z,100802.72
2023-05-10T11:11:08.895Z,100782.13
2023-05-10T11:13:40.692Z,100795.00
2023-05-10T11:16:19.668Z,100785.78
2023-05-10T11:18:55.932Z,100772.25
2023-05-10T11:21:24.258Z,100787.78
2023-05-10T11:23:57.290Z,100780.00
2023-05-10T11:26:27.558Z,100786.47
2023-05-10T11:28:57.365Z,100777.47
2023-05-10T11:31:27.605Z,100774.41
2023-05-10T11:33:57.780Z,100784.88
2023-05-10T11:36:28.240Z,100774.94
2023-05-10T11:38:56.702Z,100775.53
2023-05-10T11:41:27.058Z,100770.06
2023-05-10T11:43:56.495Z,100781.94
2023-05-10T11:46:25.706Z,100777.22
2023-05-10T11:48:55.103Z,100769.44
2023-05-10T11:51:23.846Z,100769.75
2023-05-10T11:53:52.833Z,100771.59
2023-05-10T11:56:21.747Z,100769.47
2023-05-10T11:58:57.686Z,100788.94
2023-05-10T12:01:26.859Z,100770.50
2023-05-10T12:03:56.391Z,100782.78
2023-05-10T12:06:24.817Z,100775.53
2023-05-10T12:08:54.800Z,100770.50
2023-05-10T12:11:28.162Z,100783.56
2023-05-10T12:13:58.163Z,100778.41
2023-05-10T12:16:27.569Z,100787.13
2023-05-10T12:19:00.047Z,100779.16
2023-05-10T12:21:31.404Z,100786.47
2023-05-10T12:24:03.531Z,100789.91
2023-05-10T12:26:31.640Z,100793.28
2023-05-10T12:29:17.689Z,100787.59
2023-05-10T12:31:53.801Z,100783.81
2023-05-10T12:34:26.374Z,100787.03
2023-05-10T12:36:55.474Z,100785.00
2023-05-10T12:39:23.768Z,100797.66
2023-05-10T12:41:52.391Z,100794.19
2023-05-10T12:44:21.648Z,100800.59
2023-05-10T12:46:49.811Z,100781.69
2023-05-10T12:49:17.811Z,100794.06
2023-05-10T12:51:45.754Z,100785.25
2023-05-10T12:54:13.693Z,100792.38
2023-05-10T12:56:41.848Z,100783.56
2023-05-10T12:59:09.760Z,100790.03
2023-05-10T13:01:39.344Z,100792.09
2023-05-10T13:04:07.444Z,100786.94
2023-05-10T13:06:36.034Z,100801.16
2023-05-10T13:09:04.489Z,100796.31
2023-05-10T13:11:32.457Z,100791.09
2023-05-10T13:14:01.246Z,100790.38
2023-05-10T13:16:29.172Z,100792.50
2023-05-10T13:18:59.513Z,100790.34
2023-05-10T13:21:27.644Z,100778.41
2023-05-10T13:23:55.679Z,100783.84
2023-05-10T13:26:23.596Z,100779.69
2023-05-10T13:28:52.789Z,100772.94
2023-05-10T13:31:21.700Z,100775.09
2023-05-10T13:33:49.621Z,100765.41
2023-05-10T13:36:19.263Z,100772.59
2023-05-10T13:38:49.957Z,100774.25
2023-05-10T13:41:18.652Z,100770.94
2023-05-10T13:43:46.688Z,100772.19
2023-05-10T13:46:14.611Z,100770.34
2023-05-10T13:48:42.463Z,100766.50
2023-05-10T13:51:10.481Z,100775.94
2023-05-10T13:53:39.769Z,100765.25
2023-05-10T13:56:08.168Z,100769.28
2023-05-10T13:58:36.766Z,100769.84
2023-05-10T14:01:05.839Z,100775.09
2023-05-10T14:03:34.100Z,100764.44
2023-05-10T14:06:02.331Z,100783.75
2023-05-10T14:08:30.245Z,100769.34
2023-05-10T14:10:59.505Z,100769.34
2023-05-10T14:13:27.359Z,100776.56
2023-05-10T14:15:56.232Z,100761.34
2023-05-10T14:18:24.332Z,100765.41
2023-05-10T14:20:52.273Z,100757.28
2023-05-10T14:23:20.871Z,100770.19
2023-05-10T14:25:48.732Z,100773.91
2023-05-10T14:28:18.263Z,100761.34
2023-05-10T14:30:46.295Z,100757.75
2023-05-10T14:33:14.312Z,100763.88
2023-05-10T14:35:42.433Z,100770.28
2023-05-10T14:38:11.711Z,100755.50
2023-05-10T14:40:39.538Z,100759.47
2023-05-10T14:43:07.568Z,100766.16
2023-05-10T14:45:37.019Z,100760.94
2023-05-10T14:48:05.634Z,100757.56
2023-05-10T14:50:36.980Z,100748.44
2023-05-10T14:53:05.339Z,100757.56
2023-05-10T14:55:33.690Z,100761.41
2023-05-10T14:58:01.615Z,100765.94
2023-05-10T15:00:31.341Z,100763.97
2023-05-10T15:03:01.181Z,100767.28
2023-05-10T15:05:29.557Z,100766.06
2023-05-10T15:07:57.849Z,100763.41
2023-05-10T15:10:26.265Z,100766.44
2023-05-10T15:12:54.166Z,100768.81
2023-05-10T15:15:22.137Z,100768.53
2023-05-10T15:17:50.150Z,100764.38
2023-05-10T15:20:19.594Z,100766.50
2023-05-10T15:22:47.477Z,100770.66
2023-05-10T15:25:16.984Z,100768.59
2023-05-10T15:27:45.596Z,100777.44
2023-05-10T15:30:14.257Z,100766.91
2023-05-10T15:32:42.203Z,100772.38
2023-05-10T15:35:11.141Z,100778.28
2023-05-10T15:37:40.570Z,100773.25
2023-05-10T15:40:09.199Z,100768.00
2023-05-10T15:42:37.100Z,100773.63
2023-05-10T15:45:05.947Z,100765.22
2023-05-10T15:47:34.179Z,100772.38
2023-05-10T15:50:02.168Z,100769.44
2023-05-10T15:52:30.064Z,100777.13
2023-05-10T15:54:59.292Z,100781.84
2023-05-10T15:57:27.233Z,100786.47
2023-05-10T15:59:56.292Z,100782.22
2023-05-10T16:02:24.470Z,100787.47
2023-05-10T16:04:52.709Z,100789.16
2023-05-10T16:07:20.661Z,100783.94
2023-05-10T16:09:49.443Z,100784.09
2023-05-10T16:12:18.872Z,100795.00
2023-05-10T16:14:47.799Z,100790.44
2023-05-10T16:17:16.346Z,100793.59
2023-05-10T16:19:44.260Z,100798.84
2023-05-10T16:22:12.208Z,100808.81
2023-05-10T16:24:40.083Z,100803.03
2023-05-10T16:27:08.043Z,100824.94
2023-05-10T16:29:37.295Z,100808.56
2023-05-10T16:32:05.224Z,100820.47
2023-05-10T16:34:33.067Z,100834.19
2023-05-10T16:37:01.061Z,100836.47
2023-05-10T16:39:29.230Z,100841.09
2023-05-10T16:41:57.106Z,100847.97
2023-05-10T16:44:25.924Z,100852.94
2023-05-10T16:46:56.021Z,100859.00
2023-05-10T16:49:26.099Z,100856.25
2023-05-10T16:51:54.259Z,100867.72
2023-05-10T16:54:22.798Z,100858.41
2023-05-10T16:56:50.798Z,100866.03
2023-05-10T16:59:18.711Z,100873.03
2023-05-10T17:01:47.109Z,100872.63
2023-05-10T17:04:17.790Z,100873.44
2023-05-10T17:06:45.715Z,100876.34
2023-05-10T17:09:13.921Z,100875.13
2023-05-10T17:11:41.988Z,100878.19
2023-05-10T17:14:10.136Z,100880.84
2023-05-10T17:16:38.109Z,100884.09
2023-05-10T17:19:06.079Z,100890.44
2023-05-10T17:21:35.394Z,100887.84
2023-05-10T17:24:03.274Z,100896.94
2023-05-10T17:26:31.189Z,100898.09
2023-05-10T17:28:59.376Z,100898.09
2023-05-10T17:31:27.704Z,100902.69
2023-05-10T17:33:55.616Z,100912.94
2023-05-10T17:36:23.487Z,100918.31
2023-05-10T17:38:52.814Z,100916.88
2023-05-10T17:41:21.765Z,100920.50
2023-05-10T17:43:49.615Z,100920.69
2023-05-10T17:46:17.975Z,100924.03
2023-05-10T17:48:45.985Z,100937.22
2023-05-10T17:51:13.895Z,100927.91
2023-05-10T17:53:42.370Z,100929.19
2023-05-10T17:56:11.552Z,100930.63
2023-05-10T17:58:39.453Z,100935.59
2023-05-10T18:01:07.443Z,100947.41
2023-05-10T18:03:35.988Z,100934.31
2023-05-10T18:06:05.169Z,100938.44
2023-05-10T18:08:33.800Z,100942.75
2023-05-10T18:11:01.687Z,100947.66
2023-05-10T18:13:30.942Z,100946.66
2023-05-10T18:15:59.393Z,100953.72
2023-05-10T18:18:27.352Z,100954.25
2023-05-10T18:20:57.645Z,100959.03
2023-05-10T18:23:26.322Z,100968.47
2023-05-10T18:25:54.380Z,100964.28
2023-05-10T18:28:22.301Z,100968.13
2023-05-10T18:30:52.197Z,100967.28
2023-05-10T18:33:20.133Z,100977.47
2023-05-10T18:35:48.022Z,100979.34
2023-05-10T18:38:15.916Z,100981.81
2023-05-10T18:40:44.044Z,100981.09
2023-05-10T18:43:11.910Z,100982.72
2023-05-10T18:45:40.044Z,100996.97
2023-05-10T18:48:09.295Z,100994.34
2023-05-10T18:50:37.191Z,100993.66
2023-05-10T18:53:05.040Z,100999.31
2023-05-10T18:55:32.933Z,100999.09
2023-05-10T18:58:00.908Z,101004.50
2023-05-10T19:00:28.783Z,101009.34
2023-05-10T19:02:56.757Z,101018.59
2023-05-10T19:05:29.945Z,101025.91
2023-05-10T19:07:57.923Z,101013.84
2023-05-10T19:10:25.819Z,101013.88
2023-05-10T19:12:53.712Z,101024.31
2023-05-10T19:15:22.145Z,101028.19
2023-05-10T19:17:51.617Z,101033.63
2023-05-10T19:20:19.780Z,101034.34
2023-05-10T19:25:24.169Z,101025.84
2023-05-10T19:27:52.656Z,101035.00
2023-05-10T19:30:20.582Z,101044.19
2023-05-10T19:32:48.497Z,101039.94
2023-05-10T19:35:16.827Z,101036.03
2023-05-10T19:37:46.050Z,101030.50
2023-05-10T19:40:17.489Z,101039.88
2023-05-10T19:42:45.513Z,101040.06
2023-05-10T19:45:15.465Z,101047.91
2023-05-10T19:47:43.770Z,101036.53
2023-05-10T19:50:12.915Z,101045.06
2023-05-10T19:52:41.252Z,101053.59
2023-05-10T19:55:09.807Z,101045.59
2023-05-10T19:57:39.215Z,101050.22
2023-05-10T20:00:08.342Z,101049.41
2023-05-10T20:02:39.143Z,101059.75
2023-05-10T20:05:07.852Z,101059.94
2023-05-10T20:07:37.964Z,101059.78
2023-05-10T20:10:06.498Z,101062.16
2023-05-10T20:12:35.433Z,101062.31
2023-05-10T20:15:05.305Z,101059.59
2023-05-10T20:17:33.442Z,101066.22
2023-05-10T20:20:01.366Z,101072.34
2023-05-10T20:22:29.229Z,101077.41
2023-05-10T20:24:58.476Z,101077.41
2023-05-10T20:27:26.326Z,101077.78
2023-05-10T20:29:54.216Z,101074.72
2023-05-10T20:32:23.520Z,101074.22
2023-05-10T20:34:51.405Z,101070.31
2023-05-10T20:37:19.345Z,101078.13
2023-05-10T20:39:49.812Z,101081.47
2023-05-10T20:42:18.270Z,101079.09
2023-05-10T20:44:46.093Z,101074.34
2023-05-10T20:47:15.464Z,101075.91
2023-05-10T20:49:45.011Z,101075.53
2023-05-10T20:52:12.902Z,101079.25
2023-05-10T20:54:40.910Z,101078.72
2023-05-10T20:57:08.770Z,101080.63
2023-05-10T20:59:36.753Z,101079.59
2023-05-10T21:02:04.635Z,101081.78
2023-05-10T21:04:32.578Z,101083.81
2023-05-10T21:07:02.060Z,101085.16
2023-05-10T21:09:30.117Z,101090.59
2023-05-10T21:11:59.029Z,101097.03
2023-05-10T21:14:26.913Z,101090.91
2023-05-10T21:16:54.827Z,101094.31
2023-05-10T21:19:22.725Z,101092.44
2023-05-10T21:21:50.730Z,101094.94
2023-05-10T21:24:19.990Z,101092.94
2023-05-10T21:26:47.810Z,101099.66
2023-05-10T21:29:15.689Z,101089.84
2023-05-10T21:31:43.663Z,101089.53
2023-05-10T21:34:11.520Z,101099.69
2023-05-10T21:36:39.397Z,101093.59
2023-05-10T21:39:07.453Z,101088.34
2023-05-10T21:41:37.159Z,101096.81
2023-05-10T21:44:05.375Z,101104.25
2023-05-10T21:46:33.192Z,101100.53
2023-05-10T21:49:01.076Z,101099.34
2023-05-10T21:51:30.054Z,101111.38
2023-05-10T21:53:57.939Z,101097.50
2023-05-10T21:56:25.909Z,101107.81
2023-05-10T21:58:55.144Z,101102.59
2023-05-10T22:01:23.074Z,101102.22
2023-05-10T22:03:51.044Z,101104.59
2023-05-10T22:06:18.938Z,101105.84
2023-05-10T22:08:46.834Z,101113.97
2023-05-10T22:11:14.752Z,101111.91
2023-05-10T22:13:42.589Z,101109.88
2023-05-10T22:16:11.896Z,101119.03
2023-05-10T22:18:39.845Z,101112.59
2023-05-10T22:21:09.919Z,101112.22
2023-05-10T22:23:37.797Z,101106.16
2023-05-10T22:26:05.959Z,101118.53
2023-05-10T22:28:33.991Z,101112.59
2023-05-10T22:31:01.869Z,101113.38
2023-05-10T22:33:31.166Z,101120.03
2023-05-10T22:35:59.066Z,101117.31
2023-05-10T22:38:26.968Z,101107.69
2023-05-10T22:40:54.836Z,101119.41
2023-05-10T22:43:22.750Z,101112.28
2023-05-10T22:45:50.621Z,101115.47
2023-05-10T22:48:18.594Z,101103.78
2023-05-10T22:50:47.823Z,101112.28
2023-05-10T22:53:15.706Z,101122.25
2023-05-10T22:55:43.607Z,101117.34
2023-05-10T22:58:11.682Z,101119.56
2023-05-10T23:00:40.826Z,101115.94
2023-05-10T23:03:08.765Z,101118.34
2023-05-10T23:05:36.630Z,101123.91
2023-05-10T23:08:05.961Z,101122.88
2023-05-10T23:10:33.829Z,101117.94
2023-05-10T23:13:01.692Z,101122.66
2023-05-10T23:15:29.703Z,101114.75
2023-05-10T23:18:00.918Z,101122.34
2023-05-10T23:20:28.917Z,101118.41
2023-05-10T23:22:56.808Z,101119.56
2023-05-10T23:25:26.066Z,101125.28
2023-05-10T23:27:53.977Z,101125.22
2023-05-10T23:30:21.933Z,101122.97
2023-05-10T23:32:49.914Z,101133.59
2023-05-10T23:35:18.015Z,101124.63
2023-05-10T23:37:45.889Z,101128.38
2023-05-10T23:40:14.380Z,101129.88
2023-05-10T23:42:43.619Z,101128.88
2023-05-10T23:45:12.312Z,101134.75
2023-05-10T23:47:40.288Z,101122.44
2023-05-10T23:50:09.287Z,101125.75
2023-05-10T23:52:37.213Z,101124.03
2023-05-10T23:55:05.270Z,101128.97
2023-05-10T23:57:33.123Z,101134.41
